sensor_id;sensor_type;location;lat;lon;timestamp;pressure;altitude;pressure_sealevel;temperature;humidity
64025;BME280;50266;57.446;26.936;2023-05-02T00:00:56;99442.39;;;6.5;100.0
64025;BME280;50266;57.446;26.936;2023-05-02T00:01:56;99438.2;;;6.55;100.0
64025;BME280;50266;57.446;26.936;2023-05-02T00:02:56;99435.41;;;6.58;100.0
64025;BME280;50266;57.446;26.936;2023-05-02T00:03:56;99438.53;;;6.55;100.0
64025;BME280;50266;57.446;26.936;2023-05-02T00:04:56;99438.11;;;6.49;100.0
64025;BME280;50266;57.446;26.936;2023-05-02T00:05:56;99437.47;;;6.52;100.0
64025;BME280;50266;57.446;26.936;2023-05-02T00:06:56;99433.91;;;6.46;100.0
64025;BME280;50266;57.446;26.936;2023-05-02T00:07:56;99434.69;;;6.48;100.0
64025;BME280;50266;57.446;26.936;2023-05-02T00:08:56;99434.72;;;6.44;100.0
64025;BME280;50266;57.446;26.936;2023-05-02T00:09:56;99437.12;;;6.45;100.0
64025;BME280;50266;57.446;26.936;2023-05-02T00:10:56;99434.55;;;6.5;100.0
64025;BME280;50266;57.446;26.936;2023-05-02T00:11:56;99437.53;;;6.42;100.0
64025;BME280;50266;57.446;26.936;2023-05-02T00:12:57;99442.89;;;6.45;100.0
64025;BME280;50266;57.446;26.936;2023-05-02T00:13:56;99439.92;;;6.45;100.0
64025;BME280;50266;57.446;26.936;2023-05-02T00:14:56;99435.5;;;6.45;100.0
64025;BME280;50266;57.446;26.936;2023-05-02T00:15:56;99439.25;;;6.41;100.0
64025;BME280;50266;57.446;26.936;2023-05-02T00:16:56;99432.01;;;6.39;100.0
64025;BME280;50266;57.446;26.936;2023-05-02T00:17:56;99437.0;;;6.38;100.0
64025;BME280;50266;57.446;26.936;2023-05-02T00:18:56;99435.85;;;6.37;100.0
64025;BME280;50266;57.446;26.936;2023-05-02T00:19:56;99435.27;;;6.41;100.0
64025;BME280;50266;57.446;26.936;2023-05-02T00:20:56;99435.45;;;6.43;100.0
64025;BME280;50266;57.446;26.936;2023-05-02T00:21:56;99439.8;;;6.39;100.0
64025;BME280;50266;57.446;26.936;2023-05-02T00:22:56;99434.67;;;6.39;100.0
64025;BME280;50266;57.446;26.936;2023-05-02T00:23:56;99438.89;;;6.36;100.0
64025;BME280;50266;57.446;26.936;2023-05-02T00:24:57;99440.38;;;6.36;100.0
64025;BME280;50266;57.446;26.936;2023-05-02T00:25:56;99435.86;;;6.34;100.0
64025;BME280;50266;57.446;26.936;2023-05-02T00:26:56;99434.34;;;6.31;100.0
64025;BME280;50266;57.446;26.936;2023-05-02T00:27:56;99438.24;;;6.34;100.0
64025;BME280;50266;57.446;26.936;2023-05-02T00:28:56;99433.22;;;6.3;100.0
64025;BME280;50266;57.446;26.936;2023-05-02T00:29:56;99433.89;;;6.33;100.0
64025;BME280;50266;57.446;26.936;2023-05-02T00:30:56;99434.08;;;6.3;100.0
64025;BME280;50266;57.446;26.936;2023-05-02T00:31:57;99433.48;;;6.3;100.0
64025;BME280;50266;57.446;26.936;2023-05-02T00:32:57;99432.7;;;6.32;100.0
64025;BME280;50266;57.446;26.936;2023-05-02T00:33:57;99429.34;;;6.28;100.0
64025;BME280;50266;57.446;26.936;2023-05-02T00:34:57;99434.87;;;6.24;100.0
64025;BME280;50266;57.446;26.936;2023-05-02T00:35:57;99430.09;;;6.27;100.0
64025;BME280;50266;57.446;26.936;2023-05-02T00:36:57;99427.64;;;6.46;100.0
64025;BME280;50266;57.446;26.936;2023-05-02T00:37:58;99434.34;;;6.5;100.0
64025;BME280;50266;57.446;26.936;2023-05-02T00:38:57;99433.23;;;6.49;100.0
64025;BME280;50266;57.446;26.936;2023-05-02T00:39:57;99428.29;;;6.43;100.0
64025;BME280;50266;57.446;26.936;2023-05-02T00:40:57;99426.72;;;6.4;100.0
64025;BME280;50266;57.446;26.936;2023-05-02T00:41:57;99429.09;;;6.35;100.0
64025;BME280;50266;57.446;26.936;2023-05-02T00:42:57;99424.67;;;6.35;100.0
64025;BME280;50266;57.446;26.936;2023-05-02T00:43:57;99425.81;;;6.32;100.0
64025;BME280;50266;57.446;26.936;2023-05-02T00:44:57;99423.73;;;6.33;100.0
64025;BME280;50266;57.446;26.936;2023-05-02T00:45:57;99423.19;;;6.36;100.0
64025;BME280;50266;57.446;26.936;2023-05-02T00:46:57;99418.02;;;6.28;100.0
64025;BME280;50266;57.446;26.936;2023-05-02T00:47:57;99420.54;;;6.14;100.0
64025;BME280;50266;57.446;26.936;2023-05-02T00:48:57;99420.25;;;6.12;100.0
64025;BME280;50266;57.446;26.936;2023-05-02T00:49:57;99422.09;;;6.18;100.0
64025;BME280;50266;57.446;26.936;2023-05-02T00:50:57;99418.54;;;6.18;100.0
64025;BME280;50266;57.446;26.936;2023-05-02T00:51:57;99420.14;;;6.15;100.0
64025;BME280;50266;57.446;26.936;2023-05-02T00:52:58;99414.99;;;6.1;100.0
64025;BME280;50266;57.446;26.936;2023-05-02T00:53:57;99415.3;;;6.08;100.0
64025;BME280;50266;57.446;26.936;2023-05-02T00:54:57;99408.35;;;6.12;100.0
64025;BME280;50266;57.446;26.936;2023-05-02T00:55:57;99411.31;;;6.08;100.0
64025;BME280;50266;57.446;26.936;2023-05-02T00:56:57;99410.47;;;6.03;100.0
64025;BME280;50266;57.446;26.936;2023-05-02T00:57:57;99413.74;;;6.03;100.0
64025;BME280;50266;57.446;26.936;2023-05-02T00:58:57;99409.67;;;6.05;100.0
64025;BME280;50266;57.446;26.936;2023-05-02T00:59:57;99410.28;;;6.02;100.0
64025;BME280;50266;57.446;26.936;2023-05-02T01:00:59;99410.67;;;6.04;100.0
64025;BME280;50266;57.446;26.936;2023-05-02T01:03:09;99405.53;;;6.09;100.0
64025;BME280;50266;57.446;26.936;2023-05-02T01:05:24;99405.59;;;5.98;100.0
64025;BME280;50266;57.446;26.936;2023-05-02T01:07:24;99401.41;;;5.89;100.0
64025;BME280;50266;57.446;26.936;2023-05-02T01:08:19;99402.91;;;5.86;100.0
64025;BME280;50266;57.446;26.936;2023-05-02T01:11:31;99396.81;;;6.04;100.0
64025;BME280;50266;57.446;26.936;2023-05-02T01:12:41;99392.62;;;5.98;100.0
64025;BME280;50266;57.446;26.936;2023-05-02T01:13:31;99392.33;;;5.93;100.0
64025;BME280;50266;57.446;26.936;2023-05-02T01:14:35;99395.84;;;5.87;100.0
64025;BME280;50266;57.446;26.936;2023-05-02T01:15:31;99393.11;;;5.87;100.0
64025;BME280;50266;57.446;26.936;2023-05-02T01:16:31;99385.8;;;5.86;100.0
64025;BME280;50266;57.446;26.936;2023-05-02T01:17:31;99386.27;;;5.77;100.0
64025;BME280;50266;57.446;26.936;2023-05-02T01:18:32;99385.22;;;5.77;100.0
64025;BME280;50266;57.446;26.936;2023-05-02T01:19:32;99389.67;;;5.75;100.0
64025;BME280;50266;57.446;26.936;2023-05-02T01:20:31;99390.35;;;5.85;100.0
64025;BME280;50266;57.446;26.936;2023-05-02T01:21:31;99390.82;;;5.84;100.0
64025;BME280;50266;57.446;26.936;2023-05-02T01:22:31;99390.63;;;5.81;100.0
64025;BME280;50266;57.446;26.936;2023-05-02T01:24:34;99388.93;;;5.79;100.0
64025;BME280;50266;57.446;26.936;2023-05-02T01:25:48;99390.03;;;5.75;100.0
64025;BME280;50266;57.446;26.936;2023-05-02T01:26:44;99389.81;;;5.73;100.0
64025;BME280;50266;57.446;26.936;2023-05-02T01:28:02;99389.66;;;5.77;100.0
64025;BME280;50266;57.446;26.936;2023-05-02T01:28:51;99387.79;;;5.76;100.0
64025;BME280;50266;57.446;26.936;2023-05-02T01:29:45;99385.86;;;5.73;100.0
64025;BME280;50266;57.446;26.936;2023-05-02T01:30:45;99382.47;;;5.8;100.0
64025;BME280;50266;57.446;26.936;2023-05-02T01:31:47;99387.22;;;5.78;100.0
64025;BME280;50266;57.446;26.936;2023-05-02T01:32:46;99385.75;;;5.75;100.0
64025;BME280;50266;57.446;26.936;2023-05-02T01:33:45;99385.12;;;5.76;100.0
64025;BME280;50266;57.446;26.936;2023-05-02T01:34:45;99383.2;;;5.71;100.0
64025;BME280;50266;57.446;26.936;2023-05-02T01:35:45;99385.85;;;5.67;100.0
64025;BME280;50266;57.446;26.936;2023-05-02T01:36:46;99384.42;;;5.78;100.0
64025;BME280;50266;57.446;26.936;2023-05-02T01:37:45;99388.83;;;5.72;100.0
64025;BME280;50266;57.446;26.936;2023-05-02T01:38:45;99383.83;;;5.78;100.0
64025;BME280;50266;57.446;26.936;2023-05-02T01:39:45;99373.36;;;5.8;100.0
64025;BME280;50266;57.446;26.936;2023-05-02T01:40:45;99376.7;;;5.87;100.0
64025;BME280;50266;57.446;26.936;2023-05-02T01:41:46;99371.91;;;5.81;100.0
64025;BME280;50266;57.446;26.936;2023-05-02T01:42:49;99373.08;;;5.86;100.0
64025;BME280;50266;57.446;26.936;2023-05-02T01:43:45;99369.27;;;5.89;100.0
64025;BME280;50266;57.446;26.936;2023-05-02T01:44:45;99370.52;;;5.84;100.0
64025;BME280;50266;57.446;26.936;2023-05-02T01:45:46;99372.9;;;5.88;100.0
64025;BME280;50266;57.446;26.936;2023-05-02T01:46:46;99368.94;;;5.89;100.0
64025;BME280;50266;57.446;26.936;2023-05-02T01:47:46;99372.28;;;5.8;100.0
64025;BME280;50266;57.446;26.936;2023-05-02T01:48:46;99371.97;;;5.89;100.0
64025;BME280;50266;57.446;26.936;2023-05-02T01:49:46;99361.64;;;5.77;100.0
64025;BME280;50266;57.446;26.936;2023-05-02T01:50:46;99369.01;;;5.75;100.0
64025;BME280;50266;57.446;26.936;2023-05-02T01:51:46;99375.17;;;5.74;100.0
64025;BME280;50266;57.446;26.936;2023-05-02T01:52:46;99373.91;;;5.77;100.0
64025;BME280;50266;57.446;26.936;2023-05-02T01:53:46;99372.47;;;5.89;100.0
64025;BME280;50266;57.446;26.936;2023-05-02T01:54:46;99367.44;;;5.78;100.0
64025;BME280;50266;57.446;26.936;2023-05-02T01:55:46;99361.72;;;5.82;100.0
64025;BME280;50266;57.446;26.936;2023-05-02T01:56:46;99357.47;;;5.82;100.0
64025;BME280;50266;57.446;26.936;2023-05-02T01:57:46;99359.11;;;5.78;100.0
64025;BME280;50266;57.446;26.936;2023-05-02T01:58:46;99366.48;;;5.87;100.0
64025;BME280;50266;57.446;26.936;2023-05-02T01:59:46;99362.98;;;5.88;100.0
64025;BME280;50266;57.446;26.936;2023-05-02T02:00:46;99361.2;;;5.87;100.0
64025;BME280;50266;57.446;26.936;2023-05-02T02:01:46;99363.55;;;5.9;100.0
64025;BME280;50266;57.446;26.936;2023-05-02T02:02:46;99357.47;;;5.87;100.0
64025;BME280;50266;57.446;26.936;2023-05-02T02:03:46;99357.14;;;5.93;100.0
64025;BME280;50266;57.446;26.936;2023-05-02T02:04:46;99359.06;;;5.98;100.0
64025;BME280;50266;57.446;26.936;2023-05-02T02:05:46;99358.08;;;5.92;100.0
64025;BME280;50266;57.446;26.936;2023-05-02T02:06:47;99359.92;;;5.85;100.0
64025;BME280;50266;57.446;26.936;2023-05-02T02:07:46;99360.22;;;5.84;100.0
64025;BME280;50266;57.446;26.936;2023-05-02T02:08:46;99358.61;;;5.9;100.0
64025;BME280;50266;57.446;26.936;2023-05-02T02:09:46;99356.19;;;5.87;100.0
64025;BME280;50266;57.446;26.936;2023-05-02T02:10:48;99355.44;;;5.8;100.0
64025;BME280;50266;57.446;26.936;2023-05-02T02:11:49;99354.77;;;5.88;100.0
64025;BME280;50266;57.446;26.936;2023-05-02T02:12:51;99350.91;;;5.76;100.0
64025;BME280;50266;57.446;26.936;2023-05-02T02:13:48;99348.58;;;5.91;100.0
64025;BME280;50266;57.446;26.936;2023-05-02T02:14:55;99349.28;;;5.85;100.0
64025;BME280;50266;57.446;26.936;2023-05-02T02:15:52;99348.38;;;5.81;100.0
64025;BME280;50266;57.446;26.936;2023-05-02T02:16:54;99351.91;;;5.87;100.0
64025;BME280;50266;57.446;26.936;2023-05-02T02:18:04;99344.78;;;5.74;100.0
64025;BME280;50266;57.446;26.936;2023-05-02T02:18:55;99349.86;;;5.73;100.0
64025;BME280;50266;57.446;26.936;2023-05-02T02:19:55;99344.88;;;5.83;100.0
64025;BME280;50266;57.446;26.936;2023-05-02T02:20:55;99346.92;;;5.74;100.0
64025;BME280;50266;57.446;26.936;2023-05-02T02:21:55;99343.41;;;5.9;100.0
64025;BME280;50266;57.446;26.936;2023-05-02T02:22:55;99344.22;;;5.88;100.0
64025;BME280;50266;57.446;26.936;2023-05-02T02:23:55;99344.82;;;5.91;100.0
64025;BME280;50266;57.446;26.936;2023-05-02T02:24:55;99341.11;;;5.9;100.0
64025;BME280;50266;57.446;26.936;2023-05-02T02:25:55;99340.14;;;5.86;100.0
64025;BME280;50266;57.446;26.936;2023-05-02T02:26:55;99339.15;;;5.86;100.0
64025;BME280;50266;57.446;26.936;2023-05-02T02:27:55;99337.0;;;5.81;100.0
64025;BME280;50266;57.446;26.936;2023-05-02T02:28:55;99342.8;;;5.87;100.0
64025;BME280;50266;57.446;26.936;2023-05-02T02:29:55;99337.99;;;5.8;100.0
64025;BME280;50266;57.446;26.936;2023-05-02T02:30:55;99338.03;;;5.84;100.0
64025;BME280;50266;57.446;26.936;2023-05-02T02:31:55;99339.4;;;5.82;100.0
64025;BME280;50266;57.446;26.936;2023-05-02T02:32:56;99337.58;;;5.77;100.0
64025;BME280;50266;57.446;26.936;2023-05-02T02:33:56;99338.12;;;5.8;100.0
64025;BME280;50266;57.446;26.936;2023-05-02T02:34:56;99337.56;;;5.8;100.0
64025;BME280;50266;57.446;26.936;2023-05-02T02:36:03;99337.39;;;5.76;100.0
64025;BME280;50266;57.446;26.936;2023-05-02T02:37:03;99339.69;;;5.71;100.0
64025;BME280;50266;57.446;26.936;2023-05-02T02:38:19;99342.1;;;5.7;100.0
64025;BME280;50266;57.446;26.936;2023-05-02T02:40:18;99342.95;;;5.71;100.0
64025;BME280;50266;57.446;26.936;2023-05-02T02:41:15;99341.12;;;5.6;100.0
64025;BME280;50266;57.446;26.936;2023-05-02T02:45:34;99340.47;;;5.73;100.0
64025;BME280;50266;57.446;26.936;2023-05-02T02:46:28;99345.42;;;5.71;100.0
64025;BME280;50266;57.446;26.936;2023-05-02T02:47:27;99335.25;;;5.7;100.0
64025;BME280;50266;57.446;26.936;2023-05-02T02:48:29;99340.02;;;5.56;100.0
64025;BME280;50266;57.446;26.936;2023-05-02T02:49:37;99340.74;;;5.58;100.0
64025;BME280;50266;57.446;26.936;2023-05-02T02:50:35;99325.68;;;5.58;100.0
64025;BME280;50266;57.446;26.936;2023-05-02T02:52:54;99332.22;;;5.63;100.0
64025;BME280;50266;57.446;26.936;2023-05-02T02:53:51;99335.52;;;5.53;100.0
64025;BME280;50266;57.446;26.936;2023-05-02T02:54:45;99332.08;;;5.5;100.0
64025;BME280;50266;57.446;26.936;2023-05-02T02:55:52;99335.33;;;5.44;100.0
64025;BME280;50266;57.446;26.936;2023-05-02T02:56:46;99338.61;;;5.41;100.0
64025;BME280;50266;57.446;26.936;2023-05-02T02:57:58;99335.23;;;5.37;100.0
64025;BME280;50266;57.446;26.936;2023-05-02T02:58:54;99331.12;;;5.41;100.0
64025;BME280;50266;57.446;26.936;2023-05-02T02:59:51;99332.84;;;5.4;100.0
64025;BME280;50266;57.446;26.936;2023-05-02T03:00:56;99329.44;;;5.34;100.0
64025;BME280;50266;57.446;26.936;2023-05-02T03:01:55;99330.54;;;5.31;100.0
64025;BME280;50266;57.446;26.936;2023-05-02T03:02:55;99330.59;;;5.43;100.0
64025;BME280;50266;57.446;26.936;2023-05-02T03:03:55;99332.12;;;5.46;100.0
64025;BME280;50266;57.446;26.936;2023-05-02T03:04:55;99321.3;;;5.51;100.0
64025;BME280;50266;57.446;26.936;2023-05-02T03:05:55;99326.47;;;5.66;100.0
64025;BME280;50266;57.446;26.936;2023-05-02T03:06:55;99318.25;;;5.55;100.0
64025;BME280;50266;57.446;26.936;2023-05-02T03:07:55;99317.58;;;5.5;100.0
64025;BME280;50266;57.446;26.936;2023-05-02T03:08:55;99318.36;;;5.66;100.0
64025;BME280;50266;57.446;26.936;2023-05-02T03:09:55;99316.0;;;5.56;100.0
64025;BME280;50266;57.446;26.936;2023-05-02T03:10:55;99315.5;;;5.52;100.0
64025;BME280;50266;57.446;26.936;2023-05-02T03:11:55;99316.23;;;5.5;100.0
64025;BME280;50266;57.446;26.936;2023-05-02T03:12:55;99319.81;;;5.51;100.0
64025;BME280;50266;57.446;26.936;2023-05-02T03:13:55;99315.22;;;5.54;100.0
64025;BME280;50266;57.446;26.936;2023-05-02T03:14:59;99314.23;;;5.53;100.0
64025;BME280;50266;57.446;26.936;2023-05-02T03:16:24;99315.7;;;5.57;100.0
64025;BME280;50266;57.446;26.936;2023-05-02T03:17:03;99316.95;;;5.57;100.0
64025;BME280;50266;57.446;26.936;2023-05-02T03:18:03;99317.3;;;5.55;100.0
64025;BME280;50266;57.446;26.936;2023-05-02T03:19:03;99312.98;;;5.54;100.0
64025;BME280;50266;57.446;26.936;2023-05-02T03:20:04;99314.95;;;5.55;100.0
64025;BME280;50266;57.446;26.936;2023-05-02T03:21:03;99308.8;;;5.54;100.0
64025;BME280;50266;57.446;26.936;2023-05-02T03:22:04;99311.06;;;5.55;100.0
64025;BME280;50266;57.446;26.936;2023-05-02T03:23:03;99311.45;;;5.52;100.0
64025;BME280;50266;57.446;26.936;2023-05-02T03:24:04;99309.02;;;5.48;100.0
64025;BME280;50266;57.446;26.936;2023-05-02T03:25:04;99314.73;;;5.52;100.0
64025;BME280;50266;57.446;26.936;2023-05-02T03:26:03;99308.46;;;5.62;100.0
64025;BME280;50266;57.446;26.936;2023-05-02T03:27:03;99311.72;;;5.56;100.0
64025;BME280;50266;57.446;26.936;2023-05-02T03:28:04;99307.4;;;5.57;100.0
64025;BME280;50266;57.446;26.936;2023-05-02T03:29:03;99305.83;;;5.6;100.0
64025;BME280;50266;57.446;26.936;2023-05-02T03:30:04;99310.98;;;5.64;100.0
64025;BME280;50266;57.446;26.936;2023-05-02T03:31:04;99306.77;;;5.59;100.0
64025;BME280;50266;57.446;26.936;2023-05-02T03:32:04;99303.44;;;5.58;100.0
64025;BME280;50266;57.446;26.936;2023-05-02T03:33:04;99308.0;;;5.62;100.0
64025;BME280;50266;57.446;26.936;2023-05-02T03:34:04;99299.78;;;5.64;100.0
64025;BME280;50266;57.446;26.936;2023-05-02T03:35:04;99306.56;;;5.71;100.0
64025;BME280;50266;57.446;26.936;2023-05-02T03:36:04;99304.44;;;5.69;100.0
64025;BME280;50266;57.446;26.936;2023-05-02T03:37:04;99302.58;;;5.64;100.0
64025;BME280;50266;57.446;26.936;2023-05-02T03:38:04;99298.95;;;5.65;100.0
64025;BME280;50266;57.446;26.936;2023-05-02T03:39:04;99305.8;;;5.67;100.0
64025;BME280;50266;57.446;26.936;2023-05-02T03:40:04;99299.86;;;5.62;100.0
64025;BME280;50266;57.446;26.936;2023-05-02T03:41:04;99302.35;;;5.7;100.0
64025;BME280;50266;57.446;26.936;2023-05-02T03:42:04;99302.6;;;5.73;100.0
64025;BME280;50266;57.446;26.936;2023-05-02T03:43:04;99304.27;;;5.8;100.0
64025;BME280;50266;57.446;26.936;2023-05-02T03:44:04;99307.69;;;5.82;100.0
64025;BME280;50266;57.446;26.936;2023-05-02T03:45:07;99301.47;;;5.74;100.0
64025;BME280;50266;57.446;26.936;2023-05-02T03:46:04;99307.87;;;5.68;100.0
64025;BME280;50266;57.446;26.936;2023-05-02T03:47:04;99301.84;;;5.72;100.0
64025;BME280;50266;57.446;26.936;2023-05-02T03:48:04;99303.92;;;5.73;100.0
64025;BME280;50266;57.446;26.936;2023-05-02T03:49:04;99306.33;;;5.78;100.0
64025;BME280;50266;57.446;26.936;2023-05-02T03:50:04;99301.09;;;5.88;100.0
64025;BME280;50266;57.446;26.936;2023-05-02T03:51:05;99302.66;;;5.95;100.0
64025;BME280;50266;57.446;26.936;2023-05-02T03:52:04;99303.06;;;5.94;100.0
64025;BME280;50266;57.446;26.936;2023-05-02T03:53:04;99308.38;;;5.92;100.0
64025;BME280;50266;57.446;26.936;2023-05-02T03:54:04;99307.5;;;5.85;100.0
64025;BME280;50266;57.446;26.936;2023-05-02T03:55:05;99306.04;;;5.82;100.0
64025;BME280;50266;57.446;26.936;2023-05-02T03:56:04;99303.02;;;5.86;100.0
64025;BME280;50266;57.446;26.936;2023-05-02T03:57:04;99300.72;;;5.9;100.0
64025;BME280;50266;57.446;26.936;2023-05-02T03:58:04;99299.64;;;6.03;100.0
64025;BME280;50266;57.446;26.936;2023-05-02T03:59:04;99297.0;;;5.99;100.0
64025;BME280;50266;57.446;26.936;2023-05-02T04:00:04;99299.71;;;6.07;100.0
64025;BME280;50266;57.446;26.936;2023-05-02T04:01:07;99302.25;;;6.02;100.0
64025;BME280;50266;57.446;26.936;2023-05-02T04:02:08;99299.44;;;6.18;100.0
64025;BME280;50266;57.446;26.936;2023-05-02T04:03:08;99291.48;;;6.22;100.0
64025;BME280;50266;57.446;26.936;2023-05-02T04:04:08;99295.83;;;6.32;100.0
64025;BME280;50266;57.446;26.936;2023-05-02T04:05:08;99292.75;;;6.25;100.0
64025;BME280;50266;57.446;26.936;2023-05-02T04:06:08;99293.41;;;6.3;100.0
64025;BME280;50266;57.446;26.936;2023-05-02T04:07:08;99290.49;;;6.26;100.0
64025;BME280;50266;57.446;26.936;2023-05-02T04:08:08;99293.66;;;6.34;100.0
64025;BME280;50266;57.446;26.936;2023-05-02T04:09:08;99288.17;;;6.32;100.0
64025;BME280;50266;57.446;26.936;2023-05-02T04:10:08;99290.44;;;6.34;100.0
64025;BME280;50266;57.446;26.936;2023-05-02T04:11:08;99295.11;;;6.38;100.0
64025;BME280;50266;57.446;26.936;2023-05-02T04:12:08;99289.09;;;6.47;100.0
64025;BME280;50266;57.446;26.936;2023-05-02T04:13:08;99287.85;;;6.42;100.0
64025;BME280;50266;57.446;26.936;2023-05-02T04:14:08;99286.6;;;6.46;100.0
64025;BME280;50266;57.446;26.936;2023-05-02T04:15:11;99290.78;;;6.51;100.0
64025;BME280;50266;57.446;26.936;2023-05-02T04:16:08;99289.61;;;6.52;100.0
64025;BME280;50266;57.446;26.936;2023-05-02T04:17:08;99286.75;;;6.65;100.0
64025;BME280;50266;57.446;26.936;2023-05-02T04:18:08;99278.11;;;6.67;100.0
64025;BME280;50266;57.446;26.936;2023-05-02T04:19:08;99282.05;;;6.63;100.0
64025;BME280;50266;57.446;26.936;2023-05-02T04:20:09;99283.33;;;6.67;100.0
64025;BME280;50266;57.446;26.936;2023-05-02T04:21:08;99286.59;;;6.68;100.0
64025;BME280;50266;57.446;26.936;2023-05-02T04:22:08;99282.7;;;6.77;100.0
64025;BME280;50266;57.446;26.936;2023-05-02T04:23:08;99278.61;;;6.89;100.0
64025;BME280;50266;57.446;26.936;2023-05-02T04:24:08;99277.09;;;6.87;100.0
64025;BME280;50266;57.446;26.936;2023-05-02T04:25:08;99278.77;;;6.87;100.0
64025;BME280;50266;57.446;26.936;2023-05-02T04:26:08;99276.33;;;6.86;100.0
64025;BME280;50266;57.446;26.936;2023-05-02T04:27:08;99272.05;;;6.91;100.0
64025;BME280;50266;57.446;26.936;2023-05-02T04:28:08;99275.98;;;6.94;100.0
64025;BME280;50266;57.446;26.936;2023-05-02T04:29:08;99273.43;;;6.92;100.0
64025;BME280;50266;57.446;26.936;2023-05-02T04:30:09;99267.32;;;6.95;100.0
64025;BME280;50266;57.446;26.936;2023-05-02T04:31:09;99273.88;;;7.05;100.0
64025;BME280;50266;57.446;26.936;2023-05-02T04:32:08;99267.34;;;7.02;100.0
64025;BME280;50266;57.446;26.936;2023-05-02T04:33:08;99266.97;;;7.06;100.0
64025;BME280;50266;57.446;26.936;2023-05-02T04:34:08;99263.52;;;7.16;100.0
64025;BME280;50266;57.446;26.936;2023-05-02T04:35:08;99265.98;;;7.11;100.0
64025;BME280;50266;57.446;26.936;2023-05-02T04:36:09;99262.48;;;7.14;100.0
64025;BME280;50266;57.446;26.936;2023-05-02T04:37:09;99259.8;;;7.11;100.0
64025;BME280;50266;57.446;26.936;2023-05-02T04:38:09;99257.94;;;7.23;100.0
64025;BME280;50266;57.446;26.936;2023-05-02T04:39:09;99260.2;;;7.22;100.0
64025;BME280;50266;57.446;26.936;2023-05-02T04:40:09;99255.64;;;7.25;100.0
64025;BME280;50266;57.446;26.936;2023-05-02T04:41:09;99260.28;;;7.23;100.0
64025;BME280;50266;57.446;26.936;2023-05-02T04:42:09;99257.39;;;7.22;100.0
64025;BME280;50266;57.446;26.936;2023-05-02T04:43:09;99263.44;;;7.35;100.0
64025;BME280;50266;57.446;26.936;2023-05-02T04:44:09;99253.07;;;7.39;100.0
64025;BME280;50266;57.446;26.936;2023-05-02T04:45:09;99252.84;;;7.52;100.0
64025;BME280;50266;57.446;26.936;2023-05-02T04:46:09;99249.33;;;7.54;100.0
64025;BME280;50266;57.446;26.936;2023-05-02T04:47:09;99252.03;;;7.55;100.0
64025;BME280;50266;57.446;26.936;2023-05-02T04:48:09;99254.19;;;7.57;100.0
64025;BME280;50266;57.446;26.936;2023-05-02T04:49:09;99245.34;;;7.63;100.0
64025;BME280;50266;57.446;26.936;2023-05-02T04:50:09;99247.98;;;7.66;100.0
64025;BME280;50266;57.446;26.936;2023-05-02T04:51:09;99245.02;;;7.72;100.0
64025;BME280;50266;57.446;26.936;2023-05-02T04:52:09;99240.41;;;7.73;100.0
64025;BME280;50266;57.446;26.936;2023-05-02T04:53:09;99246.94;;;7.76;100.0
64025;BME280;50266;57.446;26.936;2023-05-02T04:54:09;99236.73;;;7.82;100.0
64025;BME280;50266;57.446;26.936;2023-05-02T04:55:09;99239.19;;;7.86;100.0
64025;BME280;50266;57.446;26.936;2023-05-02T04:56:09;99241.47;;;7.84;100.0
64025;BME280;50266;57.446;26.936;2023-05-02T04:57:09;99246.96;;;7.9;100.0
64025;BME280;50266;57.446;26.936;2023-05-02T04:58:09;99242.77;;;7.87;100.0
64025;BME280;50266;57.446;26.936;2023-05-02T04:59:09;99242.02;;;7.99;100.0
64025;BME280;50266;57.446;26.936;2023-05-02T05:00:09;99242.56;;;8.11;100.0
64025;BME280;50266;57.446;26.936;2023-05-02T05:01:09;99234.45;;;8.19;100.0
64025;BME280;50266;57.446;26.936;2023-05-02T05:02:09;99238.8;;;8.2;100.0
64025;BME280;50266;57.446;26.936;2023-05-02T05:03:09;99242.27;;;8.25;100.0
64025;BME280;50266;57.446;26.936;2023-05-02T05:04:09;99235.45;;;8.35;100.0
64025;BME280;50266;57.446;26.936;2023-05-02T05:05:09;99229.77;;;8.48;100.0
64025;BME280;50266;57.446;26.936;2023-05-02T05:06:09;99236.41;;;8.51;100.0
64025;BME280;50266;57.446;26.936;2023-05-02T05:07:09;99238.86;;;8.53;100.0
64025;BME280;50266;57.446;26.936;2023-05-02T05:08:09;99232.29;;;8.58;100.0
64025;BME280;50266;57.446;26.936;2023-05-02T05:09:09;99231.97;;;8.84;100.0
64025;BME280;50266;57.446;26.936;2023-05-02T05:10:09;99231.23;;;8.72;100.0
64025;BME280;50266;57.446;26.936;2023-05-02T05:11:09;99237.09;;;8.65;100.0
64025;BME280;50266;57.446;26.936;2023-05-02T05:12:09;99233.8;;;8.69;100.0
64025;BME280;50266;57.446;26.936;2023-05-02T05:13:09;99230.73;;;8.65;100.0
64025;BME280;50266;57.446;26.936;2023-05-02T05:14:09;99230.59;;;8.62;100.0
64025;BME280;50266;57.446;26.936;2023-05-02T05:15:10;99228.34;;;8.64;100.0
64025;BME280;50266;57.446;26.936;2023-05-02T05:16:09;99230.78;;;8.61;100.0
64025;BME280;50266;57.446;26.936;2023-05-02T05:17:09;99232.02;;;8.74;100.0
64025;BME280;50266;57.446;26.936;2023-05-02T05:18:09;99226.75;;;8.74;100.0
64025;BME280;50266;57.446;26.936;2023-05-02T05:19:09;99224.86;;;8.72;100.0
64025;BME280;50266;57.446;26.936;2023-05-02T05:20:09;99219.81;;;8.75;100.0
64025;BME280;50266;57.446;26.936;2023-05-02T05:21:09;99223.05;;;8.81;100.0
64025;BME280;50266;57.446;26.936;2023-05-02T05:22:09;99230.67;;;8.79;100.0
64025;BME280;50266;57.446;26.936;2023-05-02T05:23:09;99213.77;;;8.84;100.0
64025;BME280;50266;57.446;26.936;2023-05-02T05:24:09;99220.23;;;8.96;100.0
64025;BME280;50266;57.446;26.936;2023-05-02T05:25:10;99217.03;;;9.02;100.0
64025;BME280;50266;57.446;26.936;2023-05-02T05:26:13;99217.84;;;9.11;100.0
64025;BME280;50266;57.446;26.936;2023-05-02T05:27:10;99209.48;;;9.13;100.0
64025;BME280;50266;57.446;26.936;2023-05-02T05:28:10;99208.44;;;9.12;100.0
64025;BME280;50266;57.446;26.936;2023-05-02T05:29:10;99210.5;;;9.18;100.0
64025;BME280;50266;57.446;26.936;2023-05-02T05:30:10;99219.69;;;9.41;100.0
64025;BME280;50266;57.446;26.936;2023-05-02T05:31:10;99209.69;;;9.42;100.0
64025;BME280;50266;57.446;26.936;2023-05-02T05:32:10;99211.78;;;9.42;100.0